createdAt,value
2022-10-24T00:01:18.901Z,4.57
2022-10-24T00:03:46.367Z,5.65
2022-10-24T00:06:13.924Z,7.18
2022-10-24T00:08:42.699Z,6.20
2022-10-24T00:11:19.358Z,8.40
2022-10-24T00:13:46.354Z,7.00
2022-10-24T00:16:13.637Z,3.53
2022-10-24T00:18:40.972Z,4.97
2022-10-24T00:21:08.658Z,3.03
2022-10-24T00:23:36.179Z,3.25
2022-10-24T00:26:04.435Z,4.40
2022-10-24T00:28:33.115Z,4.55
2022-10-24T00:31:00.530Z,4.40
2022-10-24T00:33:27.980Z,6.05
2022-10-24T00:35:54.911Z,4.18
2022-10-24T00:38:22.017Z,4.43
2022-10-24T00:40:49.000Z,4.55
2022-10-24T00:43:18.125Z,6.57
2022-10-24T00:45:55.217Z,3.20
2022-10-24T00:48:24.344Z,3.80
2022-10-24T00:50:56.905Z,4.80
2022-10-24T00:53:25.652Z,7.50
2022-10-24T00:55:55.774Z,4.90
2022-10-24T00:58:26.033Z,3.42
2022-10-24T01:00:53.052Z,3.75
2022-10-24T01:03:20.127Z,6.50
2022-10-24T01:06:07.792Z,4.80
2022-10-24T01:09:13.359Z,4.80
2022-10-24T01:11:53.548Z,3.42
2022-10-24T01:14:50.877Z,5.00
2022-10-24T01:17:42.100Z,2.78
2022-10-24T01:20:39.468Z,2.88
2022-10-24T01:23:29.044Z,4.35
2022-10-24T01:25:58.974Z,4.40
2022-10-24T01:31:12.975Z,3.40
2022-10-24T01:33:49.105Z,3.47
2022-10-24T01:36:30.273Z,6.45
2022-10-24T01:39:02.560Z,3.75
2022-10-24T01:41:32.104Z,4.25
2022-10-24T01:44:07.560Z,2.97
2022-10-24T01:46:45.449Z,6.15
2022-10-24T01:49:21.167Z,4.03
2022-10-24T01:51:53.522Z,3.72
2022-10-24T01:54:21.357Z,3.75
2022-10-24T01:56:48.298Z,4.80
2022-10-24T01:59:29.786Z,3.80
2022-10-24T02:02:08.990Z,5.53
2022-10-24T02:04:42.962Z,3.25
2022-10-24T02:07:13.284Z,3.13
2022-10-24T02:09:43.501Z,3.78
2022-10-24T02:12:14.362Z,4.45
2022-10-24T02:14:50.032Z,4.10
2022-10-24T02:17:17.840Z,3.38
2022-10-24T02:19:46.174Z,4.15
2022-10-24T02:22:31.124Z,4.05
2022-10-24T02:25:07.694Z,3.42
2022-10-24T02:28:11.586Z,3.97
2022-10-24T02:30:48.727Z,4.82
2022-10-24T02:33:17.488Z,4.72
2022-10-24T02:35:47.089Z,5.63
2022-10-24T02:38:37.280Z,6.38
2022-10-24T02:41:09.235Z,5.05
2022-10-24T02:43:36.909Z,7.40
2022-10-24T02:46:04.870Z,5.10
2022-10-24T02:48:35.270Z,3.72
2022-10-24T02:51:02.954Z,7.20
2022-10-24T02:53:30.459Z,7.70
2022-10-24T02:55:57.736Z,13.32
2022-10-24T02:58:25.056Z,4.15
2022-10-24T03:00:52.337Z,4.45
2022-10-24T03:03:19.710Z,6.35
2022-10-24T03:05:47.008Z,5.32
2022-10-24T03:08:14.350Z,8.38
2022-10-24T03:10:42.807Z,4.28
2022-10-24T03:13:10.093Z,9.13
2022-10-24T03:15:37.514Z,6.60
2022-10-24T03:18:04.922Z,6.13
2022-10-24T03:20:32.329Z,5.40
2022-10-24T03:22:59.637Z,5.88
2022-10-24T03:25:26.947Z,4.38
2022-10-24T03:27:54.204Z,4.68
2022-10-24T03:30:21.489Z,5.13
2022-10-24T03:32:48.755Z,3.88
2022-10-24T03:35:16.731Z,6.40
2022-10-24T03:37:44.117Z,8.02
2022-10-24T03:40:11.953Z,7.47
2022-10-24T03:42:39.466Z,8.90
2022-10-24T03:45:07.165Z,9.48
2022-10-24T03:47:34.551Z,7.28
2022-10-24T03:50:01.841Z,6.65
2022-10-24T03:52:29.085Z,12.27
2022-10-24T03:54:57.424Z,5.63
2022-10-24T03:57:26.021Z,8.60
2022-10-24T03:59:53.311Z,6.32
2022-10-24T04:02:22.085Z,7.57
2022-10-24T04:04:49.405Z,7.03
2022-10-24T04:07:16.715Z,4.90
2022-10-24T04:09:44.469Z,8.13
2022-10-24T04:12:12.199Z,8.57
2022-10-24T04:14:39.523Z,8.27
2022-10-24T04:17:06.708Z,5.40
2022-10-24T04:19:33.968Z,6.43
2022-10-24T04:22:01.436Z,6.50
2022-10-24T04:24:28.734Z,6.55
2022-10-24T04:26:55.658Z,6.00
2022-10-24T04:29:22.546Z,9.10
2022-10-24T04:31:49.511Z,8.45
2022-10-24T04:34:16.495Z,12.07
2022-10-24T04:36:43.770Z,11.00
2022-10-24T04:39:10.840Z,8.32
2022-10-24T04:41:37.877Z,9.23
2022-10-24T04:44:05.174Z,7.65
2022-10-24T04:46:32.346Z,7.22
2022-10-24T04:48:59.908Z,14.18
2022-10-24T04:51:28.088Z,9.52
2022-10-24T04:53:55.261Z,13.80
2022-10-24T04:56:23.408Z,14.20
2022-10-24T04:58:50.883Z,11.35
2022-10-24T05:01:18.353Z,11.40
2022-10-24T05:03:45.638Z,16.90
2022-10-24T05:06:12.653Z,15.73
2022-10-24T05:08:39.649Z,17.23
2022-10-24T05:11:06.707Z,11.65
2022-10-24T05:13:36.595Z,23.15
2022-10-24T05:16:04.620Z,10.68
2022-10-24T05:18:31.982Z,12.73
2022-10-24T05:21:00.255Z,27.42
2022-10-24T05:23:27.930Z,31.98
2022-10-24T05:25:54.818Z,30.05
2022-10-24T05:28:21.666Z,28.77
2022-10-24T05:30:48.828Z,19.90
2022-10-24T05:33:15.785Z,23.45
2022-10-24T05:35:42.945Z,29.38
2022-10-24T05:38:09.944Z,17.88
2022-10-24T05:40:36.794Z,20.02
2022-10-24T05:43:04.006Z,21.88
2022-10-24T05:45:31.320Z,22.50
2022-10-24T05:47:58.353Z,16.60
2022-10-24T05:50:26.805Z,24.30
2022-10-24T05:52:54.186Z,24.67
2022-10-24T05:55:21.469Z,17.00
2022-10-24T05:57:48.606Z,20.23
2022-10-24T06:00:17.085Z,28.58
2022-10-24T06:05:16.760Z,27.45
2022-10-24T06:07:44.517Z,23.15
2022-10-24T06:10:12.447Z,26.95
2022-10-24T06:12:39.785Z,29.85
2022-10-24T06:15:08.268Z,41.15
2022-10-24T06:17:35.620Z,34.80
2022-10-24T06:20:02.545Z,26.10
2022-10-24T06:22:29.949Z,25.83
2022-10-24T06:24:57.202Z,29.63
2022-10-24T06:27:24.266Z,33.20
2022-10-24T06:29:51.140Z,29.85
2022-10-24T06:32:18.219Z,24.88
2022-10-24T06:34:45.210Z,23.80
2022-10-24T06:37:12.167Z,30.08
2022-10-24T06:39:39.032Z,19.98
2022-10-24T06:42:06.300Z,23.92
2022-10-24T06:44:33.585Z,22.08
2022-10-24T06:47:00.836Z,19.88
2022-10-24T06:49:28.222Z,21.27
2022-10-24T06:51:55.465Z,20.92
2022-10-24T06:54:24.212Z,21.20
2022-10-24T06:56:53.756Z,19.50
2022-10-24T06:59:21.127Z,20.48
2022-10-24T07:01:48.604Z,23.55
2022-10-24T07:04:16.072Z,21.92
2022-10-24T07:06:43.021Z,17.67
2022-10-24T07:09:15.145Z,22.27
2022-10-24T07:11:43.080Z,17.15
2022-10-24T07:14:11.061Z,25.70
2022-10-24T07:16:38.577Z,14.10
2022-10-24T07:19:06.247Z,15.82
2022-10-24T07:21:33.937Z,19.10
2022-10-24T07:24:01.431Z,17.88
2022-10-24T07:26:29.581Z,18.13
2022-10-24T07:31:35.052Z,18.13
2022-10-24T07:34:04.380Z,18.05
2022-10-24T07:36:31.547Z,14.43
2022-10-24T07:38:59.768Z,15.00
2022-10-24T07:41:28.972Z,11.55
2022-10-24T07:43:58.218Z,13.25
2022-10-24T07:46:26.325Z,18.48
2022-10-24T07:48:54.171Z,15.10
2022-10-24T07:51:21.733Z,14.55
2022-10-24T07:53:49.297Z,10.95
2022-10-24T07:56:18.133Z,12.05
2022-10-24T07:58:46.554Z,10.32
2022-10-24T08:01:19.778Z,13.95
2022-10-24T08:03:47.229Z,11.15
2022-10-24T08:06:17.824Z,10.32
2022-10-24T08:08:45.177Z,11.00
2022-10-24T08:11:17.838Z,11.48
2022-10-24T08:13:45.157Z,9.73
2022-10-24T08:16:14.115Z,13.25
2022-10-24T08:18:41.281Z,14.88
2022-10-24T08:21:11.336Z,14.88
2022-10-24T08:23:41.978Z,11.73
2022-10-24T08:26:10.385Z,11.35
2022-10-24T08:28:37.412Z,10.90
2022-10-24T08:31:07.061Z,9.05
2022-10-24T08:33:34.802Z,9.88
2022-10-24T08:36:04.338Z,37.38
2022-10-24T08:38:31.694Z,7.13
2022-10-24T08:40:59.280Z,6.38
2022-10-24T08:43:26.893Z,5.72
2022-10-24T08:45:54.194Z,14.13
2022-10-24T08:48:27.333Z,10.35
2022-10-24T08:50:56.047Z,11.43
2022-10-24T08:53:25.718Z,16.65
2022-10-24T08:55:54.151Z,8.60
2022-10-24T08:58:26.731Z,16.27
2022-10-24T09:00:57.208Z,13.90
2022-10-24T09:03:50.766Z,8.00
2022-10-24T09:06:18.614Z,5.22
2022-10-24T09:09:01.197Z,6.03
2022-10-24T09:11:46.915Z,7.35
2022-10-24T09:14:15.538Z,7.45
2022-10-24T09:16:43.853Z,6.68
2022-10-24T09:19:15.664Z,8.00
2022-10-24T09:21:44.115Z,9.63
2022-10-24T09:24:19.360Z,8.60
2022-10-24T09:26:46.911Z,13.20
2022-10-24T09:29:14.187Z,10.57
2022-10-24T09:31:41.607Z,15.18
2022-10-24T09:34:10.662Z,11.77
2022-10-24T09:36:40.175Z,10.50
2022-10-24T09:39:24.630Z,10.38
2022-10-24T09:41:51.940Z,10.50
2022-10-24T09:44:31.235Z,12.20
2022-10-24T09:46:58.627Z,19.95
2022-10-24T09:49:31.819Z,9.18
2022-10-24T09:52:08.342Z,10.90
2022-10-24T09:54:36.603Z,7.65
2022-10-24T09:57:03.913Z,8.75
2022-10-24T09:59:34.113Z,8.13
2022-10-24T10:02:19.552Z,7.30
2022-10-24T10:04:48.665Z,11.02
2022-10-24T10:07:18.097Z,7.95
2022-10-24T10:09:56.486Z,10.88
2022-10-24T10:12:30.373Z,9.73
2022-10-24T10:14:58.037Z,12.85
2022-10-24T10:17:27.575Z,12.43
2022-10-24T10:19:55.672Z,13.40
2022-10-24T10:22:22.908Z,13.25
2022-10-24T10:24:50.207Z,18.08
2022-10-24T10:27:36.118Z,9.73
2022-10-24T10:30:22.365Z,12.27
2022-10-24T10:33:06.692Z,11.85
2022-10-24T10:35:45.962Z,12.25
2022-10-24T10:38:37.921Z,8.23
2022-10-24T10:41:16.580Z,12.43
2022-10-24T10:43:53.497Z,8.95
2022-10-24T10:46:28.350Z,8.60
2022-10-24T10:49:04.508Z,12.50
2022-10-24T10:51:31.772Z,7.78
2022-10-24T10:53:59.007Z,7.50
2022-10-24T10:56:32.565Z,11.68
2022-10-24T10:59:08.820Z,22.45
2022-10-24T11:01:51.461Z,6.40
2022-10-24T11:04:21.803Z,5.47
2022-10-24T11:07:05.922Z,8.75
2022-10-24T11:09:43.838Z,8.70
2022-10-24T11:12:13.917Z,7.00
2022-10-24T11:14:43.881Z,7.78
2022-10-24T11:19:41.705Z,10.73
2022-10-24T11:22:14.960Z,8.68
2022-10-24T11:24:46.121Z,7.63
2022-10-24T11:27:31.984Z,6.88
2022-10-24T11:30:06.897Z,4.40
2022-10-24T11:32:40.314Z,9.65
2022-10-24T11:35:22.978Z,4.35
2022-10-24T11:37:51.848Z,5.07
2022-10-24T11:40:23.435Z,3.90
2022-10-24T11:42:50.995Z,2.95
2022-10-24T11:45:22.515Z,5.07
2022-10-24T11:48:02.341Z,4.00
2022-10-24T11:53:00.827Z,4.28
2022-10-24T11:55:37.328Z,6.53
2022-10-24T11:58:05.989Z,5.03
2022-10-24T12:00:37.707Z,5.43
2022-10-24T12:03:10.779Z,5.72
2022-10-24T12:05:56.835Z,10.63
2022-10-24T12:08:42.162Z,13.75
2022-10-24T12:11:28.154Z,2.78
2022-10-24T12:14:05.026Z,6.25
2022-10-24T12:16:43.201Z,9.20
2022-10-24T12:19:16.099Z,7.15
2022-10-24T12:21:49.017Z,4.15
2022-10-24T12:24:33.239Z,4.88
2022-10-24T12:27:02.826Z,9.90
2022-10-24T12:29:33.645Z,7.95
2022-10-24T12:32:20.851Z,3.88
2022-10-24T12:35:12.173Z,4.03
2022-10-24T12:37:46.928Z,3.53
2022-10-24T12:40:33.030Z,7.65
2022-10-24T12:43:00.282Z,7.15
2022-10-24T12:45:32.096Z,5.80
2022-10-24T12:47:59.349Z,6.65
2022-10-24T12:50:27.620Z,3.17
2022-10-24T12:52:54.876Z,7.18
2022-10-24T12:55:33.474Z,4.78
2022-10-24T12:58:23.459Z,6.55
2022-10-24T13:00:55.197Z,13.25
2022-10-24T13:03:45.523Z,4.68
2022-10-24T13:06:26.032Z,4.35
2022-10-24T13:09:22.728Z,4.07
2022-10-24T13:11:54.034Z,4.93
2022-10-24T13:14:39.855Z,7.05
2022-10-24T13:17:07.110Z,4.32
2022-10-24T13:19:34.497Z,7.10
2022-10-24T13:22:02.326Z,4.82
2022-10-24T13:24:29.637Z,3.53
2022-10-24T13:26:56.920Z,5.40
2022-10-24T13:29:24.148Z,9.00
2022-10-24T13:31:52.340Z,7.68
2022-10-24T13:34:22.731Z,8.15
2022-10-24T13:36:58.541Z,18.33
2022-10-24T13:39:28.239Z,13.25
2022-10-24T13:42:00.748Z,11.38
2022-10-24T13:44:27.984Z,6.78
2022-10-24T13:47:03.321Z,10.02
2022-10-24T13:49:37.280Z,6.80
2022-10-24T13:52:09.490Z,7.95
2022-10-24T13:54:38.239Z,10.82
2022-10-24T13:57:22.602Z,10.38
2022-10-24T13:59:55.040Z,11.40
2022-10-24T14:02:26.138Z,5.88
2022-10-24T14:04:57.475Z,19.45
2022-10-24T14:07:30.058Z,13.55
2022-10-24T14:10:11.746Z,4.85
2022-10-24T14:12:40.252Z,7.63
2022-10-24T14:15:16.105Z,4.38
2022-10-24T14:17:53.743Z,5.05
2022-10-24T14:20:25.489Z,7.53
2022-10-24T14:22:52.930Z,7.78
2022-10-24T14:25:24.167Z,6.43
2022-10-24T14:27:52.637Z,7.97
2022-10-24T14:30:22.033Z,9.38
2022-10-24T14:32:49.272Z,7.63
2022-10-24T14:35:17.041Z,9.23
2022-10-24T14:37:44.991Z,9.82
2022-10-24T14:40:17.031Z,15.45
2022-10-24T14:42:45.975Z,12.57
2022-10-24T14:45:23.684Z,10.18
2022-10-24T14:47:52.634Z,12.15
2022-10-24T14:50:36.708Z,11.05
2022-10-24T14:53:04.632Z,13.30
2022-10-24T14:55:32.315Z,16.95
2022-10-24T14:57:59.743Z,14.10
2022-10-24T15:00:28.245Z,16.77
2022-10-24T15:02:57.756Z,10.95
2022-10-24T15:05:24.981Z,9.02
2022-10-24T15:10:48.318Z,12.60
2022-10-24T15:13:17.275Z,14.32
2022-10-24T15:15:44.487Z,9.20
2022-10-24T15:18:31.436Z,14.68
2022-10-24T15:21:11.096Z,14.25
2022-10-24T15:23:45.930Z,13.52
2022-10-24T15:26:18.948Z,14.50
2022-10-24T15:28:46.316Z,12.48
2022-10-24T15:31:18.133Z,10.38
2022-10-24T15:33:46.561Z,11.10
2022-10-24T15:36:24.333Z,15.73
2022-10-24T15:38:56.040Z,12.32
2022-10-24T15:41:23.517Z,13.02
2022-10-24T15:43:50.836Z,14.80
2022-10-24T15:46:20.095Z,18.38
2022-10-24T15:48:48.844Z,15.52
2022-10-24T15:51:17.240Z,13.15
2022-10-24T15:53:47.308Z,14.57
2022-10-24T15:56:14.787Z,14.60
2022-10-24T15:58:42.251Z,15.68
2022-10-24T16:01:19.443Z,15.90
2022-10-24T16:03:49.859Z,22.42
2022-10-24T16:06:17.170Z,21.50
2022-10-24T16:08:44.437Z,15.55
2022-10-24T16:11:12.720Z,12.05
2022-10-24T16:13:40.042Z,10.77
2022-10-24T16:16:07.559Z,10.45
2022-10-24T16:18:36.278Z,11.13
2022-10-24T16:21:05.106Z,10.93
2022-10-24T16:23:32.893Z,12.35
2022-10-24T16:26:00.251Z,14.15
2022-10-24T16:28:28.941Z,14.38
2022-10-24T16:30:56.250Z,18.42
2022-10-24T16:33:23.618Z,20.35
2022-10-24T16:35:51.829Z,17.40
2022-10-24T16:38:19.432Z,16.40
2022-10-24T16:40:48.437Z,17.17
2022-10-24T16:43:17.869Z,20.50
2022-10-24T16:45:47.169Z,15.98
2022-10-24T16:48:14.746Z,18.58
2022-10-24T16:50:46.485Z,14.90
2022-10-24T16:53:15.562Z,14.13
2022-10-24T16:55:46.896Z,12.45
2022-10-24T16:58:14.183Z,10.82
2022-10-24T17:00:41.528Z,13.43
2022-10-24T17:03:08.870Z,11.85
2022-10-24T17:05:36.266Z,12.60
2022-10-24T17:08:03.620Z,14.40
2022-10-24T17:10:31.039Z,11.23
2022-10-24T17:13:00.246Z,10.70
2022-10-24T17:15:27.562Z,13.15
2022-10-24T17:17:54.893Z,11.70
2022-10-24T17:20:22.261Z,13.20
2022-10-24T17:22:50.328Z,13.27
2022-10-24T17:25:19.979Z,14.57
2022-10-24T17:27:48.578Z,13.95
2022-10-24T17:30:18.514Z,20.90
2022-10-24T17:32:47.449Z,15.68
2022-10-24T17:35:16.252Z,13.13
2022-10-24T17:37:43.475Z,12.85
2022-10-24T17:40:15.131Z,13.20
2022-10-24T17:42:43.353Z,12.68
2022-10-24T17:45:14.913Z,10.57
2022-10-24T17:47:42.321Z,12.73
2022-10-24T17:50:10.378Z,13.43
2022-10-24T17:52:40.279Z,13.10
2022-10-24T17:57:38.549Z,9.93
2022-10-24T18:00:06.107Z,9.25
2022-10-24T18:02:34.279Z,10.02
2022-10-24T18:05:01.546Z,12.18
2022-10-24T18:07:28.786Z,8.98
2022-10-24T18:10:00.433Z,10.55
2022-10-24T18:12:27.696Z,9.70
2022-10-24T18:14:57.167Z,7.97
2022-10-24T18:17:24.666Z,9.88
2022-10-24T18:19:51.969Z,9.90
2022-10-24T18:22:19.261Z,7.97
2022-10-24T18:24:46.824Z,10.85
2022-10-24T18:27:14.117Z,11.32
2022-10-24T18:32:15.080Z,9.98
2022-10-24T18:34:42.823Z,7.93
2022-10-24T18:37:10.991Z,8.18
2022-10-24T18:39:38.333Z,8.30
2022-10-24T18:42:31.696Z,8.93
2022-10-24T18:44:59.187Z,8.48
2022-10-24T18:47:26.787Z,11.88
2022-10-24T18:49:54.600Z,9.60
2022-10-24T18:52:41.970Z,9.50
2022-10-24T18:55:20.325Z,9.13
2022-10-24T18:57:48.955Z,7.68
2022-10-24T19:00:19.439Z,7.55
2022-10-24T19:02:54.520Z,8.15
2022-10-24T19:05:39.951Z,8.63
2022-10-24T19:08:12.346Z,8.10
2022-10-24T19:10:39.672Z,10.00
2022-10-24T19:13:09.586Z,9.95
2022-10-24T19:18:06.030Z,9.68
2022-10-24T19:20:35.710Z,9.07
2022-10-24T19:23:06.114Z,6.50
2022-10-24T19:25:35.080Z,7.72
2022-10-24T19:28:02.357Z,10.60
2022-10-24T19:30:29.618Z,7.20
2022-10-24T19:32:57.068Z,7.57
2022-10-24T19:35:25.147Z,9.38
2022-10-24T19:37:52.453Z,7.40
2022-10-24T19:40:19.789Z,7.40
2022-10-24T19:42:47.138Z,9.80
2022-10-24T19:45:14.480Z,9.80
2022-10-24T19:47:41.818Z,8.20
2022-10-24T19:50:09.298Z,9.02
2022-10-24T19:52:36.587Z,9.15
2022-10-24T19:55:03.990Z,8.73
2022-10-24T19:57:31.298Z,7.85
2022-10-24T19:59:58.584Z,8.25
2022-10-24T20:02:28.009Z,12.65
2022-10-24T20:04:55.261Z,8.98
2022-10-24T20:07:22.556Z,12.40
2022-10-24T20:09:50.931Z,10.73
2022-10-24T20:12:18.219Z,10.63
2022-10-24T20:14:45.488Z,7.25
2022-10-24T20:17:12.788Z,9.95
2022-10-24T20:19:40.082Z,11.90
2022-10-24T20:22:07.412Z,6.93
2022-10-24T20:24:34.777Z,7.05
2022-10-24T20:27:02.549Z,5.65
2022-10-24T20:29:29.863Z,8.02
2022-10-24T20:31:57.175Z,9.43
2022-10-24T20:34:24.444Z,6.35
2022-10-24T20:36:51.744Z,5.22
2022-10-24T20:39:21.204Z,6.82
2022-10-24T20:41:51.765Z,7.05
2022-10-24T20:44:22.499Z,6.78
2022-10-24T20:46:49.738Z,9.40
2022-10-24T20:49:17.028Z,7.75
2022-10-24T20:51:44.309Z,6.93
2022-10-24T20:54:11.717Z,7.47
2022-10-24T20:56:42.384Z,8.75
2022-10-24T20:59:10.334Z,10.05
2022-10-24T21:01:37.662Z,4.53
2022-10-24T21:04:05.089Z,8.13
2022-10-24T21:06:33.659Z,6.95
2022-10-24T21:11:35.225Z,5.82
2022-10-24T21:14:02.493Z,7.25
2022-10-24T21:16:30.164Z,5.45
2022-10-24T21:18:58.186Z,7.53
2022-10-24T21:21:26.178Z,8.68
2022-10-24T21:23:54.174Z,7.38
2022-10-24T21:26:21.545Z,8.02
2022-10-24T21:28:49.240Z,5.28
2022-10-24T21:31:20.569Z,7.90
2022-10-24T21:33:47.881Z,6.07
2022-10-24T21:36:16.717Z,7.15
2022-10-24T21:38:46.989Z,6.30
2022-10-24T21:41:14.251Z,8.05
2022-10-24T21:43:42.719Z,6.05
2022-10-24T21:46:10.008Z,5.88
2022-10-24T21:48:37.622Z,7.13
2022-10-24T21:51:07.100Z,7.07
2022-10-24T21:53:45.015Z,6.10
2022-10-24T21:56:13.630Z,4.57
2022-10-24T21:58:41.008Z,5.60
2022-10-24T22:01:15.390Z,4.90
2022-10-24T22:03:43.073Z,8.25
2022-10-24T22:06:12.311Z,3.70
2022-10-24T22:08:39.866Z,6.20
2022-10-24T22:11:08.550Z,7.13
2022-10-24T22:13:36.362Z,7.55
2022-10-24T22:16:03.802Z,10.48
2022-10-24T22:18:31.822Z,7.45
2022-10-24T22:20:59.492Z,8.32
2022-10-24T22:23:27.219Z,9.48
2022-10-24T22:25:54.591Z,14.98
2022-10-24T22:28:22.074Z,6.55
2022-10-24T22:30:49.422Z,7.95
2022-10-24T22:33:48.911Z,5.18
2022-10-24T22:36:22.127Z,6.03
2022-10-24T22:38:52.491Z,7.53
2022-10-24T22:41:20.280Z,4.38
2022-10-24T22:43:47.688Z,4.97
2022-10-24T22:46:30.000Z,6.93
2022-10-24T22:49:00.077Z,6.15
2022-10-24T22:51:27.556Z,6.47
2022-10-24T22:53:55.000Z,3.80
2022-10-24T22:56:33.487Z,5.00
2022-10-24T22:59:01.706Z,7.03
2022-10-24T23:01:47.946Z,5.97
2022-10-24T23:04:30.424Z,6.70
2022-10-24T23:07:16.554Z,5.72
2022-10-24T23:09:43.864Z,5.20
2022-10-24T23:12:13.631Z,4.57
2022-10-24T23:14:41.067Z,7.55
2022-10-24T23:17:08.460Z,5.40
2022-10-24T23:19:40.508Z,5.95
2022-10-24T23:22:28.129Z,5.25
2022-10-24T23:25:00.966Z,5.85
2022-10-24T23:27:33.307Z,5.93
2022-10-24T23:30:01.454Z,9.73
2022-10-24T23:32:30.275Z,5.35
2022-10-24T23:35:34.690Z,8.18
2022-10-24T23:38:02.123Z,6.55
2022-10-24T23:40:36.964Z,4.95
2022-10-24T23:43:04.804Z,7.63
2022-10-24T23:45:48.910Z,8.25
2022-10-24T23:48:16.150Z,5.05
2022-10-24T23:51:02.118Z,7.45
2022-10-24T23:53:51.434Z,7.57
2022-10-24T23:56:19.710Z,6.22
2022-10-24T23:58:48.422Z,5.20
